sensor_id;sensor_type;location;lat;lon;timestamp;P1;durP1;ratioP1;P2;durP2;ratioP2
295;SDS011;132;48.770;9.200;2023-04-25T04:29:56;7.68;;;3.60;;
295;SDS011;132;48.770;9.200;2023-04-25T04:32:57;4.18;;;3.15;;
295;SDS011;132;48.770;9.200;2023-04-25T04:35:42;5.93;;;3.42;;
295;SDS011;132;48.770;9.200;2023-04-25T04:38:10;6.25;;;3.60;;
295;SDS011;132;48.770;9.200;2023-04-25T04:47:45;5.13;;;3.90;;
295;SDS011;132;48.770;9.200;2023-04-25T04:50:39;7.45;;;3.60;;
295;SDS011;132;48.770;9.200;2023-04-25T04:56:17;7.88;;;4.03;;
295;SDS011;132;48.770;9.200;2023-04-25T05:01:45;5.70;;;3.45;;
295;SDS011;132;48.770;9.200;2023-04-25T05:04:48;7.65;;;3.60;;
295;SDS011;132;48.770;9.200;2023-04-25T05:07:44;6.80;;;3.85;;
295;SDS011;132;48.770;9.200;2023-04-25T05:10:33;5.60;;;3.90;;
295;SDS011;132;48.770;9.200;2023-04-25T05:14:06;4.53;;;3.40;;
295;SDS011;132;48.770;9.200;2023-04-25T05:16:53;12.18;;;3.65;;
295;SDS011;132;48.770;9.200;2023-04-25T05:19:41;7.20;;;3.83;;
295;SDS011;132;48.770;9.200;2023-04-25T05:23:00;7.13;;;4.10;;
295;SDS011;132;48.770;9.200;2023-04-25T05:25:54;11.95;;;4.20;;
295;SDS011;132;48.770;9.200;2023-04-25T05:28:35;5.53;;;3.70;;
295;SDS011;132;48.770;9.200;2023-04-25T05:40:10;6.18;;;4.20;;
295;SDS011;132;48.770;9.200;2023-04-25T05:42:56;5.32;;;3.97;;
295;SDS011;132;48.770;9.200;2023-04-25T05:45:30;5.43;;;4.00;;
295;SDS011;132;48.770;9.200;2023-04-25T05:48:19;6.22;;;3.85;;
295;SDS011;132;48.770;9.200;2023-04-25T05:51:12;4.68;;;3.40;;
295;SDS011;132;48.770;9.200;2023-04-25T05:54:05;5.43;;;3.42;;
295;SDS011;132;48.770;9.200;2023-04-25T05:56:33;5.65;;;3.95;;
295;SDS011;132;48.770;9.200;2023-04-25T06:01:35;5.57;;;3.72;;
295;SDS011;132;48.770;9.200;2023-04-25T06:04:07;4.35;;;3.20;;
295;SDS011;132;48.770;9.200;2023-04-25T06:06:57;4.68;;;3.40;;
295;SDS011;132;48.770;9.200;2023-04-25T06:09:24;6.78;;;3.45;;
295;SDS011;132;48.770;9.200;2023-04-25T06:11:53;9.38;;;3.55;;
295;SDS011;132;48.770;9.200;2023-04-25T06:14:20;4.75;;;3.10;;
295;SDS011;132;48.770;9.200;2023-04-25T06:16:49;5.25;;;3.33;;
295;SDS011;132;48.770;9.200;2023-04-25T06:19:16;3.65;;;3.35;;
295;SDS011;132;48.770;9.200;2023-04-25T06:21:43;6.40;;;3.40;;
295;SDS011;132;48.770;9.200;2023-04-25T06:24:11;4.63;;;3.58;;
295;SDS011;132;48.770;9.200;2023-04-25T06:26:38;4.80;;;3.53;;
295;SDS011;132;48.770;9.200;2023-04-25T06:29:06;4.80;;;3.00;;
295;SDS011;132;48.770;9.200;2023-04-25T06:31:33;3.85;;;3.47;;
295;SDS011;132;48.770;9.200;2023-04-25T06:34:00;5.15;;;3.30;;
295;SDS011;132;48.770;9.200;2023-04-25T06:36:29;4.82;;;3.75;;
295;SDS011;132;48.770;9.200;2023-04-25T06:39:02;6.05;;;3.80;;
295;SDS011;132;48.770;9.200;2023-04-25T06:41:29;6.30;;;3.92;;
295;SDS011;132;48.770;9.200;2023-04-25T06:44:01;6.07;;;3.90;;
295;SDS011;132;48.770;9.200;2023-04-25T06:46:32;8.77;;;3.58;;
295;SDS011;132;48.770;9.200;2023-04-25T06:48:59;5.00;;;3.53;;
295;SDS011;132;48.770;9.200;2023-04-25T06:51:26;5.10;;;3.85;;
295;SDS011;132;48.770;9.200;2023-04-25T06:53:56;5.45;;;4.05;;
295;SDS011;132;48.770;9.200;2023-04-25T06:56:31;7.45;;;4.28;;
295;SDS011;132;48.770;9.200;2023-04-25T06:59:04;6.25;;;4.10;;
295;SDS011;132;48.770;9.200;2023-04-25T07:01:40;5.72;;;3.83;;
295;SDS011;132;48.770;9.200;2023-04-25T07:04:23;6.15;;;4.03;;
295;SDS011;132;48.770;9.200;2023-04-25T07:06:59;7.03;;;3.95;;
295;SDS011;132;48.770;9.200;2023-04-25T07:09:44;6.40;;;3.80;;
295;SDS011;132;48.770;9.200;2023-04-25T07:12:11;4.47;;;3.92;;
295;SDS011;132;48.770;9.200;2023-04-25T07:14:38;4.72;;;3.80;;
295;SDS011;132;48.770;9.200;2023-04-25T07:17:06;6.38;;;4.00;;
295;SDS011;132;48.770;9.200;2023-04-25T07:19:34;6.35;;;4.30;;
295;SDS011;132;48.770;9.200;2023-04-25T07:22:02;6.70;;;4.72;;
295;SDS011;132;48.770;9.200;2023-04-25T07:24:34;7.30;;;4.50;;
295;SDS011;132;48.770;9.200;2023-04-25T07:27:00;5.15;;;4.03;;
295;SDS011;132;48.770;9.200;2023-04-25T07:29:40;6.22;;;4.85;;
295;SDS011;132;48.770;9.200;2023-04-25T07:32:07;5.88;;;4.75;;
295;SDS011;132;48.770;9.200;2023-04-25T07:34:34;6.68;;;5.05;;
295;SDS011;132;48.770;9.200;2023-04-25T07:37:03;7.70;;;4.75;;
295;SDS011;132;48.770;9.200;2023-04-25T07:39:37;6.68;;;5.00;;
295;SDS011;132;48.770;9.200;2023-04-25T07:42:05;8.52;;;4.85;;
295;SDS011;132;48.770;9.200;2023-04-25T07:44:35;10.00;;;6.03;;
295;SDS011;132;48.770;9.200;2023-04-25T07:47:07;9.05;;;5.30;;
295;SDS011;132;48.770;9.200;2023-04-25T07:49:36;8.48;;;5.00;;
295;SDS011;132;48.770;9.200;2023-04-25T07:52:03;7.72;;;5.50;;
295;SDS011;132;48.770;9.200;2023-04-25T07:54:33;7.55;;;5.40;;
295;SDS011;132;48.770;9.200;2023-04-25T07:57:08;7.97;;;5.38;;
295;SDS011;132;48.770;9.200;2023-04-25T07:59:37;12.40;;;6.10;;
295;SDS011;132;48.770;9.200;2023-04-25T08:02:15;7.97;;;5.38;;
295;SDS011;132;48.770;9.200;2023-04-25T08:04:42;7.30;;;5.15;;
295;SDS011;132;48.770;9.200;2023-04-25T08:07:10;9.30;;;5.45;;
295;SDS011;132;48.770;9.200;2023-04-25T08:09:53;8.02;;;5.00;;
295;SDS011;132;48.770;9.200;2023-04-25T08:12:29;8.98;;;5.45;;
295;SDS011;132;48.770;9.200;2023-04-25T08:14:56;8.55;;;5.30;;
295;SDS011;132;48.770;9.200;2023-04-25T08:17:25;8.18;;;5.70;;
295;SDS011;132;48.770;9.200;2023-04-25T08:19:53;6.82;;;5.22;;
295;SDS011;132;48.770;9.200;2023-04-25T08:22:29;7.68;;;5.28;;
295;SDS011;132;48.770;9.200;2023-04-25T08:25:35;9.38;;;4.95;;
295;SDS011;132;48.770;9.200;2023-04-25T08:28:02;10.18;;;5.30;;
295;SDS011;132;48.770;9.200;2023-04-25T08:30:29;11.50;;;5.50;;
295;SDS011;132;48.770;9.200;2023-04-25T08:32:56;10.75;;;6.28;;
295;SDS011;132;48.770;9.200;2023-04-25T08:35:36;7.35;;;5.32;;
295;SDS011;132;48.770;9.200;2023-04-25T08:38:03;10.82;;;6.32;;
295;SDS011;132;48.770;9.200;2023-04-25T08:40:30;8.85;;;5.78;;
295;SDS011;132;48.770;9.200;2023-04-25T08:43:13;10.75;;;5.72;;
295;SDS011;132;48.770;9.200;2023-04-25T08:45:41;10.63;;;6.22;;
295;SDS011;132;48.770;9.200;2023-04-25T08:48:12;7.90;;;5.07;;
295;SDS011;132;48.770;9.200;2023-04-25T08:50:42;8.20;;;5.90;;
295;SDS011;132;48.770;9.200;2023-04-25T08:53:17;8.65;;;5.90;;
295;SDS011;132;48.770;9.200;2023-04-25T08:55:52;8.85;;;5.25;;
295;SDS011;132;48.770;9.200;2023-04-25T08:58:21;8.55;;;5.70;;
295;SDS011;132;48.770;9.200;2023-04-25T09:00:48;8.02;;;5.80;;
295;SDS011;132;48.770;9.200;2023-04-25T09:03:18;7.00;;;5.30;;
295;SDS011;132;48.770;9.200;2023-04-25T09:05:47;6.95;;;5.40;;
295;SDS011;132;48.770;9.200;2023-04-25T09:08:15;7.53;;;5.40;;
295;SDS011;132;48.770;9.200;2023-04-25T09:10:42;7.50;;;5.80;;
295;SDS011;132;48.770;9.200;2023-04-25T09:13:09;11.90;;;5.75;;
295;SDS011;132;48.770;9.200;2023-04-25T09:15:59;8.30;;;5.57;;
295;SDS011;132;48.770;9.200;2023-04-25T09:18:52;8.77;;;5.72;;
295;SDS011;132;48.770;9.200;2023-04-25T09:21:22;15.55;;;5.75;;
295;SDS011;132;48.770;9.200;2023-04-25T09:23:49;9.35;;;5.70;;
295;SDS011;132;48.770;9.200;2023-04-25T09:26:18;8.07;;;5.53;;
295;SDS011;132;48.770;9.200;2023-04-25T09:28:46;8.85;;;5.65;;
295;SDS011;132;48.770;9.200;2023-04-25T09:31:22;9.07;;;6.03;;
295;SDS011;132;48.770;9.200;2023-04-25T09:33:58;8.18;;;5.28;;
295;SDS011;132;48.770;9.200;2023-04-25T09:36:26;11.60;;;6.25;;
295;SDS011;132;48.770;9.200;2023-04-25T09:39:13;14.63;;;5.97;;
295;SDS011;132;48.770;9.200;2023-04-25T09:41:42;9.52;;;6.30;;
295;SDS011;132;48.770;9.200;2023-04-25T09:44:12;8.85;;;6.35;;
295;SDS011;132;48.770;9.200;2023-04-25T09:46:40;8.00;;;5.75;;
295;SDS011;132;48.770;9.200;2023-04-25T09:49:16;11.65;;;7.85;;
295;SDS011;132;48.770;9.200;2023-04-25T09:51:59;12.02;;;6.00;;
295;SDS011;132;48.770;9.200;2023-04-25T09:54:46;6.43;;;4.70;;
295;SDS011;132;48.770;9.200;2023-04-25T09:57:22;6.70;;;4.53;;
295;SDS011;132;48.770;9.200;2023-04-25T09:59:53;6.13;;;4.88;;
295;SDS011;132;48.770;9.200;2023-04-25T10:02:22;6.55;;;4.72;;
295;SDS011;132;48.770;9.200;2023-04-25T10:04:54;10.45;;;5.40;;
295;SDS011;132;48.770;9.200;2023-04-25T10:07:25;8.40;;;6.20;;
295;SDS011;132;48.770;9.200;2023-04-25T10:09:59;6.30;;;4.93;;
295;SDS011;132;48.770;9.200;2023-04-25T10:12:30;8.52;;;5.53;;
295;SDS011;132;48.770;9.200;2023-04-25T10:14:59;8.57;;;5.95;;
295;SDS011;132;48.770;9.200;2023-04-25T10:17:26;6.80;;;5.10;;
295;SDS011;132;48.770;9.200;2023-04-25T10:19:54;5.70;;;4.22;;
295;SDS011;132;48.770;9.200;2023-04-25T10:22:23;4.22;;;3.55;;
295;SDS011;132;48.770;9.200;2023-04-25T10:24:58;4.85;;;3.40;;
295;SDS011;132;48.770;9.200;2023-04-25T10:27:29;3.58;;;2.80;;
295;SDS011;132;48.770;9.200;2023-04-25T10:30:03;3.20;;;2.70;;
295;SDS011;132;48.770;9.200;2023-04-25T10:32:33;2.63;;;2.50;;
295;SDS011;132;48.770;9.200;2023-04-25T10:35:12;2.58;;;2.00;;
295;SDS011;132;48.770;9.200;2023-04-25T10:37:56;2.67;;;2.25;;
295;SDS011;132;48.770;9.200;2023-04-25T10:40:31;3.33;;;2.85;;
295;SDS011;132;48.770;9.200;2023-04-25T10:45:53;4.25;;;3.50;;
295;SDS011;132;48.770;9.200;2023-04-25T10:48:25;4.80;;;3.95;;
295;SDS011;132;48.770;9.200;2023-04-25T10:51:08;4.78;;;3.53;;
295;SDS011;132;48.770;9.200;2023-04-25T10:53:35;6.68;;;4.00;;
295;SDS011;132;48.770;9.200;2023-04-25T10:56:16;3.80;;;3.20;;
295;SDS011;132;48.770;9.200;2023-04-25T10:58:44;5.32;;;4.10;;
295;SDS011;132;48.770;9.200;2023-04-25T11:01:12;5.63;;;4.10;;
295;SDS011;132;48.770;9.200;2023-04-25T11:03:45;7.03;;;4.97;;
295;SDS011;132;48.770;9.200;2023-04-25T11:06:23;9.38;;;6.40;;
295;SDS011;132;48.770;9.200;2023-04-25T11:09:03;5.63;;;4.57;;
295;SDS011;132;48.770;9.200;2023-04-25T11:11:39;6.78;;;4.07;;
295;SDS011;132;48.770;9.200;2023-04-25T11:14:05;4.95;;;3.80;;
295;SDS011;132;48.770;9.200;2023-04-25T11:16:32;6.85;;;4.50;;
295;SDS011;132;48.770;9.200;2023-04-25T11:18:58;6.03;;;3.83;;
295;SDS011;132;48.770;9.200;2023-04-25T11:21:25;6.82;;;3.65;;
295;SDS011;132;48.770;9.200;2023-04-25T11:23:56;4.20;;;3.60;;
295;SDS011;132;48.770;9.200;2023-04-25T11:26:22;5.47;;;3.55;;
295;SDS011;132;48.770;9.200;2023-04-25T11:28:50;4.20;;;3.65;;
295;SDS011;132;48.770;9.200;2023-04-25T11:31:19;5.40;;;4.10;;
295;SDS011;132;48.770;9.200;2023-04-25T11:33:47;5.13;;;4.28;;
295;SDS011;132;48.770;9.200;2023-04-25T11:36:13;6.35;;;5.10;;
295;SDS011;132;48.770;9.200;2023-04-25T11:38:39;6.90;;;4.53;;
295;SDS011;132;48.770;9.200;2023-04-25T11:41:06;6.10;;;4.10;;
295;SDS011;132;48.770;9.200;2023-04-25T11:43:33;6.13;;;4.05;;
295;SDS011;132;48.770;9.200;2023-04-25T11:45:59;5.07;;;3.75;;
295;SDS011;132;48.770;9.200;2023-04-25T11:48:26;8.68;;;4.40;;
295;SDS011;132;48.770;9.200;2023-04-25T11:50:53;5.15;;;4.00;;
295;SDS011;132;48.770;9.200;2023-04-25T11:53:20;5.68;;;4.00;;
295;SDS011;132;48.770;9.200;2023-04-25T11:55:47;6.03;;;4.30;;
295;SDS011;132;48.770;9.200;2023-04-25T11:58:14;5.80;;;4.00;;
295;SDS011;132;48.770;9.200;2023-04-25T12:00:41;6.22;;;4.60;;
295;SDS011;132;48.770;9.200;2023-04-25T12:03:09;7.15;;;4.95;;
295;SDS011;132;48.770;9.200;2023-04-25T12:05:35;7.80;;;4.70;;
295;SDS011;132;48.770;9.200;2023-04-25T12:08:12;7.60;;;5.40;;
295;SDS011;132;48.770;9.200;2023-04-25T12:10:40;7.35;;;5.82;;
295;SDS011;132;48.770;9.200;2023-04-25T12:15:52;8.30;;;5.40;;
295;SDS011;132;48.770;9.200;2023-04-25T12:18:22;11.30;;;6.15;;
295;SDS011;132;48.770;9.200;2023-04-25T12:20:52;9.30;;;6.30;;
295;SDS011;132;48.770;9.200;2023-04-25T12:23:25;9.65;;;5.57;;
295;SDS011;132;48.770;9.200;2023-04-25T12:25:54;10.60;;;6.57;;
295;SDS011;132;48.770;9.200;2023-04-25T12:28:22;9.25;;;7.22;;
295;SDS011;132;48.770;9.200;2023-04-25T12:30:53;10.77;;;6.75;;
295;SDS011;132;48.770;9.200;2023-04-25T12:33:21;7.15;;;5.35;;
295;SDS011;132;48.770;9.200;2023-04-25T12:35:48;8.30;;;5.35;;
295;SDS011;132;48.770;9.200;2023-04-25T12:38:48;7.35;;;5.82;;
295;SDS011;132;48.770;9.200;2023-04-25T12:41:08;7.93;;;5.80;;
295;SDS011;132;48.770;9.200;2023-04-25T12:43:35;8.00;;;5.55;;
295;SDS011;132;48.770;9.200;2023-04-25T12:46:01;8.40;;;5.70;;
295;SDS011;132;48.770;9.200;2023-04-25T12:48:27;10.60;;;6.35;;
295;SDS011;132;48.770;9.200;2023-04-25T12:50:54;11.82;;;6.95;;
295;SDS011;132;48.770;9.200;2023-04-25T12:53:21;11.18;;;6.80;;
295;SDS011;132;48.770;9.200;2023-04-25T12:55:48;10.27;;;6.07;;
295;SDS011;132;48.770;9.200;2023-04-25T12:58:15;11.00;;;6.45;;
295;SDS011;132;48.770;9.200;2023-04-25T13:00:43;8.55;;;6.03;;
295;SDS011;132;48.770;9.200;2023-04-25T13:03:10;11.32;;;6.18;;
295;SDS011;132;48.770;9.200;2023-04-25T13:05:38;10.50;;;6.30;;
295;SDS011;132;48.770;9.200;2023-04-25T13:08:05;8.53;;;6.50;;
295;SDS011;132;48.770;9.200;2023-04-25T13:10:31;9.90;;;6.87;;
295;SDS011;132;48.770;9.200;2023-04-25T13:12:59;10.67;;;6.70;;
295;SDS011;132;48.770;9.200;2023-04-25T13:15:26;8.60;;;6.90;;
295;SDS011;132;48.770;9.200;2023-04-25T13:17:53;8.67;;;6.23;;
295;SDS011;132;48.770;9.200;2023-04-25T13:20:19;9.07;;;6.30;;
295;SDS011;132;48.770;9.200;2023-04-25T13:22:48;9.90;;;6.47;;
295;SDS011;132;48.770;9.200;2023-04-25T13:25:14;9.53;;;6.57;;
295;SDS011;132;48.770;9.200;2023-04-25T13:27:42;10.07;;;6.27;;
295;SDS011;132;48.770;9.200;2023-04-25T13:30:10;11.53;;;7.37;;
295;SDS011;132;48.770;9.200;2023-04-25T13:32:36;11.50;;;7.60;;
295;SDS011;132;48.770;9.200;2023-04-25T13:35:04;11.30;;;6.70;;
295;SDS011;132;48.770;9.200;2023-04-25T13:37:33;9.67;;;6.80;;
295;SDS011;132;48.770;9.200;2023-04-25T13:40:00;11.43;;;7.73;;
295;SDS011;132;48.770;9.200;2023-04-25T13:42:28;8.47;;;6.47;;
295;SDS011;132;48.770;9.200;2023-04-25T13:44:55;11.70;;;7.35;;
295;SDS011;132;48.770;9.200;2023-04-25T13:47:21;14.43;;;8.07;;
295;SDS011;132;48.770;9.200;2023-04-25T13:49:49;12.57;;;7.77;;
295;SDS011;132;48.770;9.200;2023-04-25T13:52:16;14.13;;;9.30;;
295;SDS011;132;48.770;9.200;2023-04-25T13:54:42;13.73;;;8.23;;
295;SDS011;132;48.770;9.200;2023-04-25T13:57:09;14.50;;;9.10;;
295;SDS011;132;48.770;9.200;2023-04-25T13:59:37;19.50;;;10.00;;
295;SDS011;132;48.770;9.200;2023-04-25T14:02:03;14.50;;;9.10;;
295;SDS011;132;48.770;9.200;2023-04-25T14:04:30;18.50;;;10.20;;
295;SDS011;132;48.770;9.200;2023-04-25T14:06:57;15.23;;;10.20;;
295;SDS011;132;48.770;9.200;2023-04-25T14:09:24;16.93;;;10.83;;
295;SDS011;132;48.770;9.200;2023-04-25T14:11:52;20.30;;;10.60;;
295;SDS011;132;48.770;9.200;2023-04-25T14:14:19;17.37;;;9.90;;
295;SDS011;132;48.770;9.200;2023-04-25T14:16:46;15.73;;;10.37;;
295;SDS011;132;48.770;9.200;2023-04-25T14:19:14;15.33;;;10.00;;
295;SDS011;132;48.770;9.200;2023-04-25T14:21:41;11.73;;;8.90;;
295;SDS011;132;48.770;9.200;2023-04-25T14:24:08;15.87;;;8.47;;
295;SDS011;132;48.770;9.200;2023-04-25T14:26:36;12.70;;;8.63;;
295;SDS011;132;48.770;9.200;2023-04-25T14:29:03;14.60;;;8.43;;
295;SDS011;132;48.770;9.200;2023-04-25T14:31:31;12.83;;;7.80;;
295;SDS011;132;48.770;9.200;2023-04-25T14:33:58;11.93;;;7.90;;
295;SDS011;132;48.770;9.200;2023-04-25T14:36:24;9.40;;;6.50;;
295;SDS011;132;48.770;9.200;2023-04-25T14:38:52;10.63;;;6.30;;
295;SDS011;132;48.770;9.200;2023-04-25T14:41:18;9.20;;;5.93;;
295;SDS011;132;48.770;9.200;2023-04-25T14:43:45;17.40;;;7.40;;
295;SDS011;132;48.770;9.200;2023-04-25T14:46:11;8.87;;;6.80;;
295;SDS011;132;48.770;9.200;2023-04-25T14:48:38;9.27;;;6.73;;
295;SDS011;132;48.770;9.200;2023-04-25T14:51:05;9.50;;;6.37;;
295;SDS011;132;48.770;9.200;2023-04-25T14:53:32;11.10;;;6.90;;
295;SDS011;132;48.770;9.200;2023-04-25T14:55:58;8.50;;;6.20;;
295;SDS011;132;48.770;9.200;2023-04-25T14:58:25;8.67;;;5.80;;
295;SDS011;132;48.770;9.200;2023-04-25T15:00:51;7.47;;;5.63;;
295;SDS011;132;48.770;9.200;2023-04-25T15:03:18;7.33;;;5.50;;
295;SDS011;132;48.770;9.200;2023-04-25T15:05:44;5.70;;;4.67;;
295;SDS011;132;48.770;9.200;2023-04-25T15:08:11;7.97;;;6.10;;
295;SDS011;132;48.770;9.200;2023-04-25T15:10:37;8.80;;;6.77;;
295;SDS011;132;48.770;9.200;2023-04-25T15:13:04;9.47;;;6.13;;
295;SDS011;132;48.770;9.200;2023-04-25T15:15:30;6.57;;;5.27;;
295;SDS011;132;48.770;9.200;2023-04-25T15:17:57;9.43;;;5.77;;
295;SDS011;132;48.770;9.200;2023-04-25T15:20:23;9.20;;;6.00;;
295;SDS011;132;48.770;9.200;2023-04-25T15:22:50;11.70;;;6.67;;
295;SDS011;132;48.770;9.200;2023-04-25T15:25:17;12.40;;;6.30;;
295;SDS011;132;48.770;9.200;2023-04-25T15:27:44;8.40;;;5.93;;
295;SDS011;132;48.770;9.200;2023-04-25T15:30:13;11.90;;;6.90;;
295;SDS011;132;48.770;9.200;2023-04-25T15:32:41;13.40;;;7.83;;
295;SDS011;132;48.770;9.200;2023-04-25T15:35:08;10.77;;;6.60;;
295;SDS011;132;48.770;9.200;2023-04-25T15:37:35;12.93;;;7.47;;
295;SDS011;132;48.770;9.200;2023-04-25T15:42:35;12.37;;;6.53;;
295;SDS011;132;48.770;9.200;2023-04-25T15:45:06;8.23;;;6.13;;
295;SDS011;132;48.770;9.200;2023-04-25T15:47:34;15.83;;;6.60;;
295;SDS011;132;48.770;9.200;2023-04-25T15:50:01;13.03;;;7.30;;
295;SDS011;132;48.770;9.200;2023-04-25T15:52:29;11.50;;;7.00;;
295;SDS011;132;48.770;9.200;2023-04-25T15:54:56;10.40;;;6.27;;
295;SDS011;132;48.770;9.200;2023-04-25T15:57:23;11.53;;;7.03;;
295;SDS011;132;48.770;9.200;2023-04-25T15:59:50;9.57;;;6.50;;
295;SDS011;132;48.770;9.200;2023-04-25T16:02:17;9.20;;;6.20;;
295;SDS011;132;48.770;9.200;2023-04-25T16:04:44;9.60;;;6.20;;
295;SDS011;132;48.770;9.200;2023-04-25T16:07:12;11.40;;;6.27;;
295;SDS011;132;48.770;9.200;2023-04-25T16:09:39;11.23;;;6.47;;
295;SDS011;132;48.770;9.200;2023-04-25T16:12:07;12.40;;;6.63;;
295;SDS011;132;48.770;9.200;2023-04-25T16:14:35;16.05;;;7.45;;
295;SDS011;132;48.770;9.200;2023-04-25T16:17:02;11.55;;;7.65;;
295;SDS011;132;48.770;9.200;2023-04-25T16:19:28;11.13;;;6.93;;
295;SDS011;132;48.770;9.200;2023-04-25T16:21:55;12.05;;;6.95;;
295;SDS011;132;48.770;9.200;2023-04-25T16:24:21;16.35;;;7.38;;
295;SDS011;132;48.770;9.200;2023-04-25T16:26:48;11.15;;;6.88;;
295;SDS011;132;48.770;9.200;2023-04-25T16:29:14;14.48;;;7.30;;
295;SDS011;132;48.770;9.200;2023-04-25T16:31:42;10.68;;;6.80;;
295;SDS011;132;48.770;9.200;2023-04-25T16:34:09;13.82;;;7.47;;
295;SDS011;132;48.770;9.200;2023-04-25T16:36:35;10.95;;;6.30;;
295;SDS011;132;48.770;9.200;2023-04-25T16:39:02;10.10;;;7.20;;
295;SDS011;132;48.770;9.200;2023-04-25T16:41:29;13.38;;;7.55;;
295;SDS011;132;48.770;9.200;2023-04-25T16:43:55;12.55;;;7.18;;
295;SDS011;132;48.770;9.200;2023-04-25T16:46:22;10.63;;;6.53;;
295;SDS011;132;48.770;9.200;2023-04-25T16:48:49;10.00;;;6.78;;
295;SDS011;132;48.770;9.200;2023-04-25T16:51:19;13.98;;;6.60;;
295;SDS011;132;48.770;9.200;2023-04-25T16:53:45;10.32;;;6.20;;
295;SDS011;132;48.770;9.200;2023-04-25T16:56:13;9.63;;;6.07;;
295;SDS011;132;48.770;9.200;2023-04-25T16:58:39;11.88;;;7.05;;
295;SDS011;132;48.770;9.200;2023-04-25T17:01:06;10.00;;;6.68;;
295;SDS011;132;48.770;9.200;2023-04-25T17:03:35;10.30;;;6.50;;
295;SDS011;132;48.770;9.200;2023-04-25T17:06:02;11.10;;;7.13;;
295;SDS011;132;48.770;9.200;2023-04-25T17:08:28;12.65;;;6.95;;
295;SDS011;132;48.770;9.200;2023-04-25T17:10:55;11.75;;;6.82;;
295;SDS011;132;48.770;9.200;2023-04-25T17:13:22;11.77;;;6.50;;
295;SDS011;132;48.770;9.200;2023-04-25T17:15:49;11.13;;;6.45;;
295;SDS011;132;48.770;9.200;2023-04-25T17:18:15;12.85;;;7.25;;
295;SDS011;132;48.770;9.200;2023-04-25T17:20:42;9.20;;;6.00;;
295;SDS011;132;48.770;9.200;2023-04-25T17:23:08;12.82;;;7.00;;
295;SDS011;132;48.770;9.200;2023-04-25T17:25:34;10.05;;;6.43;;
295;SDS011;132;48.770;9.200;2023-04-25T17:28:04;13.10;;;6.60;;
295;SDS011;132;48.770;9.200;2023-04-25T17:30:30;9.90;;;6.47;;
295;SDS011;132;48.770;9.200;2023-04-25T17:32:57;11.40;;;6.45;;
295;SDS011;132;48.770;9.200;2023-04-25T17:35:24;13.40;;;6.72;;
295;SDS011;132;48.770;9.200;2023-04-25T17:37:51;12.70;;;7.63;;
295;SDS011;132;48.770;9.200;2023-04-25T17:40:18;14.43;;;7.30;;
295;SDS011;132;48.770;9.200;2023-04-25T17:42:45;13.35;;;6.85;;
295;SDS011;132;48.770;9.200;2023-04-25T17:45:11;10.85;;;6.90;;
295;SDS011;132;48.770;9.200;2023-04-25T17:47:39;13.57;;;7.85;;
295;SDS011;132;48.770;9.200;2023-04-25T17:50:05;13.00;;;6.80;;
295;SDS011;132;48.770;9.200;2023-04-25T17:52:33;13.45;;;7.45;;
295;SDS011;132;48.770;9.200;2023-04-25T17:55:00;13.82;;;8.25;;
295;SDS011;132;48.770;9.200;2023-04-25T17:57:26;16.30;;;8.25;;
295;SDS011;132;48.770;9.200;2023-04-25T17:59:53;10.95;;;7.43;;
295;SDS011;132;48.770;9.200;2023-04-25T18:02:22;14.18;;;8.05;;
295;SDS011;132;48.770;9.200;2023-04-25T18:04:48;12.00;;;7.78;;
295;SDS011;132;48.770;9.200;2023-04-25T18:07:15;11.73;;;6.68;;
295;SDS011;132;48.770;9.200;2023-04-25T18:09:41;11.77;;;7.50;;
295;SDS011;132;48.770;9.200;2023-04-25T18:12:09;13.90;;;7.95;;
295;SDS011;132;48.770;9.200;2023-04-25T18:14:36;14.63;;;7.45;;
295;SDS011;132;48.770;9.200;2023-04-25T18:17:03;11.95;;;7.95;;
295;SDS011;132;48.770;9.200;2023-04-25T18:19:31;12.05;;;7.50;;
295;SDS011;132;48.770;9.200;2023-04-25T18:21:59;12.88;;;7.18;;
295;SDS011;132;48.770;9.200;2023-04-25T18:24:26;13.95;;;7.53;;
295;SDS011;132;48.770;9.200;2023-04-25T18:26:53;14.85;;;9.43;;
295;SDS011;132;48.770;9.200;2023-04-25T18:29:20;15.50;;;8.27;;
295;SDS011;132;48.770;9.200;2023-04-25T18:31:47;13.95;;;7.60;;
295;SDS011;132;48.770;9.200;2023-04-25T18:34:13;14.45;;;8.30;;
295;SDS011;132;48.770;9.200;2023-04-25T18:36:41;13.65;;;8.10;;
295;SDS011;132;48.770;9.200;2023-04-25T18:39:08;14.40;;;8.73;;
295;SDS011;132;48.770;9.200;2023-04-25T18:41:35;18.48;;;9.50;;
295;SDS011;132;48.770;9.200;2023-04-25T18:44:03;18.02;;;10.32;;
295;SDS011;132;48.770;9.200;2023-04-25T18:46:30;13.85;;;8.32;;
295;SDS011;132;48.770;9.200;2023-04-25T18:48:57;21.05;;;8.65;;
295;SDS011;132;48.770;9.200;2023-04-25T18:51:25;14.93;;;7.70;;
295;SDS011;132;48.770;9.200;2023-04-25T18:53:56;13.23;;;8.23;;
295;SDS011;132;48.770;9.200;2023-04-25T18:56:23;18.20;;;9.13;;
295;SDS011;132;48.770;9.200;2023-04-25T18:58:51;20.83;;;10.20;;
295;SDS011;132;48.770;9.200;2023-04-25T19:01:19;16.75;;;9.63;;
295;SDS011;132;48.770;9.200;2023-04-25T19:03:47;15.38;;;8.05;;
295;SDS011;132;48.770;9.200;2023-04-25T19:06:23;15.27;;;8.45;;
295;SDS011;132;48.770;9.200;2023-04-25T19:08:53;18.80;;;10.20;;
295;SDS011;132;48.770;9.200;2023-04-25T19:11:21;17.67;;;9.90;;
295;SDS011;132;48.770;9.200;2023-04-25T19:13:48;21.98;;;11.10;;
295;SDS011;132;48.770;9.200;2023-04-25T19:16:15;24.92;;;10.65;;
295;SDS011;132;48.770;9.200;2023-04-25T19:18:42;23.17;;;11.50;;
295;SDS011;132;48.770;9.200;2023-04-25T19:21:09;19.15;;;10.10;;
295;SDS011;132;48.770;9.200;2023-04-25T19:23:36;31.25;;;18.10;;
295;SDS011;132;48.770;9.200;2023-04-25T19:26:03;19.80;;;12.45;;
295;SDS011;132;48.770;9.200;2023-04-25T19:28:30;24.55;;;11.90;;
295;SDS011;132;48.770;9.200;2023-04-25T19:30:57;16.08;;;9.60;;
295;SDS011;132;48.770;9.200;2023-04-25T19:33:27;14.27;;;8.57;;
295;SDS011;132;48.770;9.200;2023-04-25T19:35:54;14.93;;;8.85;;
295;SDS011;132;48.770;9.200;2023-04-25T19:38:20;12.57;;;8.07;;
295;SDS011;132;48.770;9.200;2023-04-25T19:40:47;22.92;;;11.32;;
295;SDS011;132;48.770;9.200;2023-04-25T19:43:14;18.77;;;10.90;;
295;SDS011;132;48.770;9.200;2023-04-25T19:45:40;15.95;;;10.25;;
295;SDS011;132;48.770;9.200;2023-04-25T19:48:06;16.25;;;10.55;;
295;SDS011;132;48.770;9.200;2023-04-25T19:50:34;16.02;;;9.65;;
295;SDS011;132;48.770;9.200;2023-04-25T19:53:01;15.90;;;9.40;;
295;SDS011;132;48.770;9.200;2023-04-25T19:55:29;14.52;;;9.75;;
295;SDS011;132;48.770;9.200;2023-04-25T19:57:55;20.48;;;11.80;;
295;SDS011;132;48.770;9.200;2023-04-25T20:00:22;15.05;;;9.43;;
295;SDS011;132;48.770;9.200;2023-04-25T20:02:48;16.45;;;10.73;;
295;SDS011;132;48.770;9.200;2023-04-25T20:05:15;18.33;;;11.90;;
295;SDS011;132;48.770;9.200;2023-04-25T20:07:43;18.10;;;11.20;;
295;SDS011;132;48.770;9.200;2023-04-25T20:10:10;16.42;;;9.93;;
295;SDS011;132;48.770;9.200;2023-04-25T20:12:41;13.30;;;8.02;;
295;SDS011;132;48.770;9.200;2023-04-25T20:15:10;13.35;;;8.05;;
295;SDS011;132;48.770;9.200;2023-04-25T20:17:37;13.77;;;8.95;;
295;SDS011;132;48.770;9.200;2023-04-25T20:20:05;14.00;;;8.85;;
295;SDS011;132;48.770;9.200;2023-04-25T20:22:32;14.52;;;8.77;;
295;SDS011;132;48.770;9.200;2023-04-25T20:25:05;12.35;;;7.65;;
295;SDS011;132;48.770;9.200;2023-04-25T20:27:33;12.85;;;7.82;;
295;SDS011;132;48.770;9.200;2023-04-25T20:30:05;11.70;;;7.22;;
295;SDS011;132;48.770;9.200;2023-04-25T20:32:33;10.52;;;6.70;;
295;SDS011;132;48.770;9.200;2023-04-25T20:35:01;13.23;;;8.20;;
295;SDS011;132;48.770;9.200;2023-04-25T20:37:29;14.27;;;8.20;;
295;SDS011;132;48.770;9.200;2023-04-25T20:39:59;16.67;;;10.27;;
295;SDS011;132;48.770;9.200;2023-04-25T20:42:26;16.77;;;9.30;;
295;SDS011;132;48.770;9.200;2023-04-25T20:44:54;12.05;;;7.40;;
295;SDS011;132;48.770;9.200;2023-04-25T20:47:22;9.40;;;6.65;;
295;SDS011;132;48.770;9.200;2023-04-25T20:49:49;9.27;;;6.60;;
295;SDS011;132;48.770;9.200;2023-04-25T20:52:15;13.57;;;7.50;;
295;SDS011;132;48.770;9.200;2023-04-25T20:54:44;11.50;;;7.20;;
295;SDS011;132;48.770;9.200;2023-04-25T20:57:15;11.73;;;6.82;;